sensor_id;sensor_type;location;lat;lon;timestamp;temperature;humidity
34522;DHT22;25561;48.888;8.736;2023-03-17T06:50:09;9.70;99.90
34522;DHT22;25561;48.888;8.736;2023-03-17T06:53:12;10.90;99.90
34522;DHT22;25561;48.888;8.736;2023-03-17T06:56:14;12.10;99.90
34522;DHT22;25561;48.888;8.736;2023-03-17T06:59:30;12.50;99.90
34522;DHT22;25561;48.888;8.736;2023-03-17T07:02:32;12.50;99.90
34522;DHT22;25561;48.888;8.736;2023-03-17T07:05:35;12.60;99.90
34522;DHT22;25561;48.888;8.736;2023-03-17T07:08:38;12.00;99.90
34522;DHT22;25561;48.888;8.736;2023-03-17T07:11:42;11.70;99.90
34522;DHT22;25561;48.888;8.736;2023-03-17T07:14:45;11.60;99.90
34522;DHT22;25561;48.888;8.736;2023-03-17T07:17:46;11.40;99.90
34522;DHT22;25561;48.888;8.736;2023-03-17T07:20:48;11.20;99.90
34522;DHT22;25561;48.888;8.736;2023-03-17T07:23:52;11.10;99.90
34522;DHT22;25561;48.888;8.736;2023-03-17T07:26:54;11.30;99.90
34522;DHT22;25561;48.888;8.736;2023-03-17T07:29:56;11.40;99.90
34522;DHT22;25561;48.888;8.736;2023-03-17T07:32:58;11.60;99.90
34522;DHT22;25561;48.888;8.736;2023-03-17T07:36:00;12.00;99.90
34522;DHT22;25561;48.888;8.736;2023-03-17T07:39:03;12.20;99.90
34522;DHT22;25561;48.888;8.736;2023-03-17T07:42:05;12.40;99.90
34522;DHT22;25561;48.888;8.736;2023-03-17T07:45:07;13.10;99.90
34522;DHT22;25561;48.888;8.736;2023-03-17T07:48:10;13.10;99.90
34522;DHT22;25561;48.888;8.736;2023-03-17T07:51:14;14.90;99.90
34522;DHT22;25561;48.888;8.736;2023-03-17T07:54:17;17.20;99.90
34522;DHT22;25561;48.888;8.736;2023-03-17T07:57:23;18.90;99.90
34522;DHT22;25561;48.888;8.736;2023-03-17T08:00:28;20.40;99.90
34522;DHT22;25561;48.888;8.736;2023-03-17T08:03:31;20.40;98.30
34522;DHT22;25561;48.888;8.736;2023-03-17T08:06:34;19.50;99.90
34522;DHT22;25561;48.888;8.736;2023-03-17T08:09:36;19.50;99.90
34522;DHT22;25561;48.888;8.736;2023-03-17T08:12:39;18.40;99.90
34522;DHT22;25561;48.888;8.736;2023-03-17T08:15:42;19.20;99.90
34522;DHT22;25561;48.888;8.736;2023-03-17T08:18:44;19.40;99.90
34522;DHT22;25561;48.888;8.736;2023-03-17T08:21:46;20.00;99.30
34522;DHT22;25561;48.888;8.736;2023-03-17T08:24:48;19.80;98.70
34522;DHT22;25561;48.888;8.736;2023-03-17T08:27:50;20.30;98.30
34522;DHT22;25561;48.888;8.736;2023-03-17T08:30:52;20.50;95.90
34522;DHT22;25561;48.888;8.736;2023-03-17T08:33:55;20.00;95.60
34522;DHT22;25561;48.888;8.736;2023-03-17T08:36:59;20.40;95.50
34522;DHT22;25561;48.888;8.736;2023-03-17T08:40:01;20.70;94.80
34522;DHT22;25561;48.888;8.736;2023-03-17T08:43:04;21.40;94.20
34522;DHT22;25561;48.888;8.736;2023-03-17T08:46:16;19.50;95.50
34522;DHT22;25561;48.888;8.736;2023-03-17T08:49:18;18.00;96.30
34522;DHT22;25561;48.888;8.736;2023-03-17T08:52:20;16.90;97.50
34522;DHT22;25561;48.888;8.736;2023-03-17T08:55:23;17.30;98.00
34522;DHT22;25561;48.888;8.736;2023-03-17T08:58:27;17.10;96.30
34522;DHT22;25561;48.888;8.736;2023-03-17T09:01:36;17.90;95.90
34522;DHT22;25561;48.888;8.736;2023-03-17T09:04:42;18.70;92.60
34522;DHT22;25561;48.888;8.736;2023-03-17T09:07:46;19.70;91.50
34522;DHT22;25561;48.888;8.736;2023-03-17T09:10:51;20.90;88.60
34522;DHT22;25561;48.888;8.736;2023-03-17T09:13:55;21.10;85.60
34522;DHT22;25561;48.888;8.736;2023-03-17T09:17:07;20.50;87.30
34522;DHT22;25561;48.888;8.736;2023-03-17T09:20:14;20.90;80.80
34522;DHT22;25561;48.888;8.736;2023-03-17T09:23:20;20.60;81.10
34522;DHT22;25561;48.888;8.736;2023-03-17T09:26:26;20.80;82.50
34522;DHT22;25561;48.888;8.736;2023-03-17T09:29:31;21.10;82.90
34522;DHT22;25561;48.888;8.736;2023-03-17T09:32:36;22.40;79.30
34522;DHT22;25561;48.888;8.736;2023-03-17T09:35:39;22.00;75.30
34522;DHT22;25561;48.888;8.736;2023-03-17T09:38:42;23.30;72.40
34522;DHT22;25561;48.888;8.736;2023-03-17T09:45:16;23.20;70.90
34522;DHT22;25561;48.888;8.736;2023-03-17T09:48:22;22.90;71.40
34522;DHT22;25561;48.888;8.736;2023-03-17T09:51:24;22.70;68.30
34522;DHT22;25561;48.888;8.736;2023-03-17T09:54:32;22.50;69.90
34522;DHT22;25561;48.888;8.736;2023-03-17T09:57:37;23.10;69.10
34522;DHT22;25561;48.888;8.736;2023-03-17T10:00:39;24.10;66.50
34522;DHT22;25561;48.888;8.736;2023-03-17T10:03:41;23.90;66.50
34522;DHT22;25561;48.888;8.736;2023-03-17T10:06:44;23.70;68.50
34522;DHT22;25561;48.888;8.736;2023-03-17T10:10:02;22.80;69.00
34522;DHT22;25561;48.888;8.736;2023-03-17T10:13:24;22.20;70.90
34522;DHT22;25561;48.888;8.736;2023-03-17T10:16:49;20.50;77.60
34522;DHT22;25561;48.888;8.736;2023-03-17T10:20:12;20.10;78.40
34522;DHT22;25561;48.888;8.736;2023-03-17T10:23:19;19.40;79.70
34522;DHT22;25561;48.888;8.736;2023-03-17T10:26:43;19.30;80.90
34522;DHT22;25561;48.888;8.736;2023-03-17T10:29:46;19.50;80.90
34522;DHT22;25561;48.888;8.736;2023-03-17T10:32:50;19.30;84.20
34522;DHT22;25561;48.888;8.736;2023-03-17T10:35:53;19.30;84.20
34522;DHT22;25561;48.888;8.736;2023-03-17T10:38:55;19.20;83.10
34522;DHT22;25561;48.888;8.736;2023-03-17T10:42:12;19.00;83.90
34522;DHT22;25561;48.888;8.736;2023-03-17T10:48:36;19.60;83.30
34522;DHT22;25561;48.888;8.736;2023-03-17T10:51:45;19.80;84.10
34522;DHT22;25561;48.888;8.736;2023-03-17T10:54:51;20.10;83.20
34522;DHT22;25561;48.888;8.736;2023-03-17T10:58:15;20.10;82.00
34522;DHT22;25561;48.888;8.736;2023-03-17T11:04:34;19.70;84.50
34522;DHT22;25561;48.888;8.736;2023-03-17T11:07:38;19.90;85.30
34522;DHT22;25561;48.888;8.736;2023-03-17T11:10:41;20.20;84.40
34522;DHT22;25561;48.888;8.736;2023-03-17T11:13:44;20.30;84.40
34522;DHT22;25561;48.888;8.736;2023-03-17T11:17:02;20.00;85.50
34522;DHT22;25561;48.888;8.736;2023-03-17T11:20:19;19.90;86.00
34522;DHT22;25561;48.888;8.736;2023-03-17T11:23:43;19.80;86.40
34522;DHT22;25561;48.888;8.736;2023-03-17T11:27:01;19.70;87.70
34522;DHT22;25561;48.888;8.736;2023-03-17T11:36:55;19.60;89.70
34522;DHT22;25561;48.888;8.736;2023-03-17T11:50:36;20.20;88.80
34522;DHT22;25561;48.888;8.736;2023-03-17T11:58:08;19.20;91.80
34522;DHT22;25561;48.888;8.736;2023-03-17T12:00:50;19.20;91.40
34522;DHT22;25561;48.888;8.736;2023-03-17T12:04:18;19.10;92.10
34522;DHT22;25561;48.888;8.736;2023-03-17T12:07:29;19.10;93.10
34522;DHT22;25561;48.888;8.736;2023-03-17T12:10:46;19.20;93.90
34522;DHT22;25561;48.888;8.736;2023-03-17T12:14:06;19.10;94.00
34522;DHT22;25561;48.888;8.736;2023-03-17T12:20:38;18.50;95.50
34522;DHT22;25561;48.888;8.736;2023-03-17T12:23:59;18.70;96.10
34522;DHT22;25561;48.888;8.736;2023-03-17T12:36:39;19.50;96.90
34522;DHT22;25561;48.888;8.736;2023-03-17T12:40:08;19.50;97.00
34522;DHT22;25561;48.888;8.736;2023-03-17T12:53:41;19.70;97.40
34522;DHT22;25561;48.888;8.736;2023-03-17T12:56:47;19.60;96.90
34522;DHT22;25561;48.888;8.736;2023-03-17T12:59:57;19.00;97.70
34522;DHT22;25561;48.888;8.736;2023-03-17T13:06:18;19.90;97.20
34522;DHT22;25561;48.888;8.736;2023-03-17T13:09:32;20.00;97.40
34522;DHT22;25561;48.888;8.736;2023-03-17T13:18:46;19.80;97.20
34522;DHT22;25561;48.888;8.736;2023-03-17T13:21:51;20.20;97.30
34522;DHT22;25561;48.888;8.736;2023-03-17T13:25:14;20.00;97.30
34522;DHT22;25561;48.888;8.736;2023-03-17T13:34:47;19.60;97.90
34522;DHT22;25561;48.888;8.736;2023-03-17T13:38:04;19.40;98.20
34522;DHT22;25561;48.888;8.736;2023-03-17T13:45:02;19.40;98.30
34522;DHT22;25561;48.888;8.736;2023-03-17T13:48:26;19.60;98.50
34522;DHT22;25561;48.888;8.736;2023-03-17T13:51:32;19.60;97.50
34522;DHT22;25561;48.888;8.736;2023-03-17T13:54:41;19.30;97.50
34522;DHT22;25561;48.888;8.736;2023-03-17T14:01:02;19.30;97.70
34522;DHT22;25561;48.888;8.736;2023-03-17T14:04:09;18.90;97.90
34522;DHT22;25561;48.888;8.736;2023-03-17T14:07:16;18.90;98.50
34522;DHT22;25561;48.888;8.736;2023-03-17T14:10:23;18.60;99.20
34522;DHT22;25561;48.888;8.736;2023-03-17T14:13:46;18.70;98.90
34522;DHT22;25561;48.888;8.736;2023-03-17T14:17:07;18.80;99.20
34522;DHT22;25561;48.888;8.736;2023-03-17T14:23:19;19.00;99.20
34522;DHT22;25561;48.888;8.736;2023-03-17T14:26:27;19.20;98.30
34522;DHT22;25561;48.888;8.736;2023-03-17T14:29:30;19.40;97.60
34522;DHT22;25561;48.888;8.736;2023-03-17T14:32:33;19.40;97.90
34522;DHT22;25561;48.888;8.736;2023-03-17T14:35:38;19.40;97.70
34522;DHT22;25561;48.888;8.736;2023-03-17T14:38:54;18.90;99.30
34522;DHT22;25561;48.888;8.736;2023-03-17T14:42:01;18.80;98.50
34522;DHT22;25561;48.888;8.736;2023-03-17T14:45:06;18.80;98.70
34522;DHT22;25561;48.888;8.736;2023-03-17T14:48:13;18.80;98.40
34522;DHT22;25561;48.888;8.736;2023-03-17T14:51:29;18.60;98.60
34522;DHT22;25561;48.888;8.736;2023-03-17T14:54:33;18.50;99.40
34522;DHT22;25561;48.888;8.736;2023-03-17T14:57:36;18.50;98.80
34522;DHT22;25561;48.888;8.736;2023-03-17T15:00:45;18.70;99.10
34522;DHT22;25561;48.888;8.736;2023-03-17T15:03:55;18.70;97.90
34522;DHT22;25561;48.888;8.736;2023-03-17T15:07:03;18.80;97.50
34522;DHT22;25561;48.888;8.736;2023-03-17T15:10:13;18.60;98.20
34522;DHT22;25561;48.888;8.736;2023-03-17T15:13:16;18.60;97.90
34522;DHT22;25561;48.888;8.736;2023-03-17T15:16:27;18.40;98.30
34522;DHT22;25561;48.888;8.736;2023-03-17T15:19:43;18.70;97.80
34522;DHT22;25561;48.888;8.736;2023-03-17T15:26:28;18.40;98.90
34522;DHT22;25561;48.888;8.736;2023-03-17T15:29:31;18.60;98.10
34522;DHT22;25561;48.888;8.736;2023-03-17T15:32:33;18.50;98.10
34522;DHT22;25561;48.888;8.736;2023-03-17T15:35:35;18.30;99.00
34522;DHT22;25561;48.888;8.736;2023-03-17T15:38:37;18.40;99.70
34522;DHT22;25561;48.888;8.736;2023-03-17T15:41:39;18.50;98.80
34522;DHT22;25561;48.888;8.736;2023-03-17T15:44:41;18.30;98.50
34522;DHT22;25561;48.888;8.736;2023-03-17T15:47:43;18.10;99.20
34522;DHT22;25561;48.888;8.736;2023-03-17T15:50:47;18.20;99.90
34522;DHT22;25561;48.888;8.736;2023-03-17T15:53:50;18.10;99.60
34522;DHT22;25561;48.888;8.736;2023-03-17T15:56:52;18.20;99.90
34522;DHT22;25561;48.888;8.736;2023-03-17T15:59:53;18.00;99.80
34522;DHT22;25561;48.888;8.736;2023-03-17T16:03:19;18.00;99.90
34522;DHT22;25561;48.888;8.736;2023-03-17T16:06:20;18.10;99.90
34522;DHT22;25561;48.888;8.736;2023-03-17T16:09:23;17.80;99.90
34522;DHT22;25561;48.888;8.736;2023-03-17T16:12:24;17.70;99.90
34522;DHT22;25561;48.888;8.736;2023-03-17T16:15:28;17.80;99.90
34522;DHT22;25561;48.888;8.736;2023-03-17T16:18:34;17.80;99.90
34522;DHT22;25561;48.888;8.736;2023-03-17T16:21:38;17.80;99.90
34522;DHT22;25561;48.888;8.736;2023-03-17T16:24:39;17.80;99.90
34522;DHT22;25561;48.888;8.736;2023-03-17T16:27:41;17.60;99.90
34522;DHT22;25561;48.888;8.736;2023-03-17T16:30:44;17.50;99.90
34522;DHT22;25561;48.888;8.736;2023-03-17T16:33:47;17.50;99.90
34522;DHT22;25561;48.888;8.736;2023-03-17T16:36:49;17.30;99.90
34522;DHT22;25561;48.888;8.736;2023-03-17T16:39:51;17.30;99.90
34522;DHT22;25561;48.888;8.736;2023-03-17T16:42:53;17.20;99.90
34522;DHT22;25561;48.888;8.736;2023-03-17T16:45:58;16.90;99.90
34522;DHT22;25561;48.888;8.736;2023-03-17T16:49:00;16.80;99.90
34522;DHT22;25561;48.888;8.736;2023-03-17T16:52:02;16.80;99.90
34522;DHT22;25561;48.888;8.736;2023-03-17T16:55:05;16.70;99.90
